Time;durP1;ratioP1;P1;durP2;ratioP2;P2;SDS_P1;SDS_P2;PMS_P1;PMS_P2;Temp;Humidity;BMP_temperature;BMP_pressure;BME280_temperature;BME280_humidity;BME280_pressure;Samples;Min_cycle;Max_cycle;Signal;HPM_P1;HPM_P2
2022/07/15 00:00:46;;;;;;;3.85;0.85;;;;;;;20.79;58.09;96898.56;10374046;28;20044;-21
2022/07/15 00:05:46;;;;;;;0.93;0.50;;;;;;;20.79;58.44;96899.38;10373921;28;20131;-21
2022/07/15 00:10:47;;;;;;;1.35;0.50;;;;;;;20.77;58.37;96903.63;10363942;28;20089;-21
2022/07/15 00:15:47;;;;;;;0.70;0.67;;;;;;;20.76;58.31;96904.50;10377485;28;20045;-21
2022/07/15 00:20:48;;;;;;;1.17;0.50;;;;;;;20.76;58.40;96909.59;10373821;28;20045;-21
2022/07/15 00:25:48;;;;;;;3.60;1.20;;;;;;;20.88;58.38;96914.63;10375250;28;20561;-21
2022/07/15 00:30:48;;;;;;;2.70;0.90;;;;;;;21.11;57.62;96912.78;10370231;28;20042;-21
2022/07/15 00:35:49;;;;;;;0.73;0.47;;;;;;;21.04;57.60;96916.22;10367662;28;20285;-21
2022/07/15 00:40:50;;;;;;;0.90;0.90;;;;;;;20.89;57.88;96921.38;10376365;28;20141;-21
2022/07/15 00:45:52;;;;;;;1.10;0.85;;;;;;;20.82;58.02;96919.69;10377253;28;20527;-20
2022/07/15 00:50:53;;;;;;;0.50;0.50;;;;;;;20.79;58.10;96919.72;10372409;28;20117;-21
2022/07/15 00:55:59;;;;;;;0.57;0.50;;;;;;;20.78;57.79;96912.97;10372030;28;20034;-21
2022/07/15 01:01:01;;;;;;;2.80;0.93;;;;;;;20.79;57.97;96909.56;10380139;28;20034;-20
2022/07/15 01:06:02;;;;;;;1.08;0.70;;;;;;;20.78;57.88;96907.88;10370656;28;20555;-22
2022/07/15 01:11:04;;;;;;;1.33;0.68;;;;;;;20.74;58.23;96906.22;10369873;28;20099;-21
2022/07/15 01:16:04;;;;;;;1.92;1.38;;;;;;;20.99;56.26;96906.91;10373294;28;20040;-21
2022/07/15 01:21:05;;;;;;;2.67;1.17;;;;;;;21.13;56.09;96903.41;10366838;28;20040;-21
2022/07/15 01:26:07;;;;;;;2.80;0.80;;;;;;;20.95;56.97;96910.31;10365100;28;20125;-21
2022/07/15 01:31:09;;;;;;;2.50;0.65;;;;;;;20.86;57.42;96908.69;10369390;28;20041;-21
2022/07/15 01:36:10;;;;;;;1.23;0.70;;;;;;;20.82;57.33;96911.25;10365022;28;20113;-21
2022/07/15 01:41:12;;;;;;;1.95;0.80;;;;;;;20.80;57.76;96911.25;10367729;28;20471;-22
2022/07/15 01:46:13;;;;;;;1.17;0.87;;;;;;;20.78;57.90;96902.78;10367053;28;20030;-20
2022/07/15 01:51:13;;;;;;;0.40;0.40;;;;;;;20.78;57.78;96896.81;10366250;28;20667;-22
2022/07/15 01:56:14;;;;;;;2.35;0.63;;;;;;;20.78;57.66;96907.88;10363619;28;20026;-21
2022/07/15 02:01:17;;;;;;;6.80;1.85;;;;;;;20.83;56.54;96906.16;10365007;28;20396;-21
2022/07/15 02:06:18;;;;;;;2.00;1.38;;;;;;;21.08;54.33;96917.03;10365865;28;20554;-21
2022/07/15 02:11:18;;;;;;;1.03;0.77;;;;;;;21.15;55.86;96913.59;10368309;28;20038;-21
2022/07/15 02:16:22;;;;;;;0.80;0.70;;;;;;;20.94;57.03;96913.72;10368254;28;20291;-21
2022/07/15 02:21:26;;;;;;;1.00;0.73;;;;;;;20.85;57.25;96904.44;10365118;28;20485;-21
2022/07/15 02:26:26;;;;;;;0.98;0.60;;;;;;;20.81;57.27;96912.94;10367580;28;20022;-22
2022/07/15 02:31:29;;;;;;;1.92;0.70;;;;;;;20.73;57.25;96896.84;10364102;28;20030;-22
2022/07/15 02:36:30;;;;;;;1.42;1.00;;;;;;;20.76;57.45;96914.66;10365369;28;20032;-22
2022/07/15 02:41:31;;;;;;;2.05;0.77;;;;;;;20.77;57.46;96911.28;10365539;28;20065;-21
2022/07/15 02:46:35;;;;;;;3.35;1.08;;;;;;;20.76;57.39;96908.72;10360018;28;20424;-21
2022/07/15 02:51:35;;;;;;;2.38;1.42;;;;;;;20.89;54.99;96906.13;10368736;28;20554;-21
2022/07/15 02:56:36;;;;;;;2.70;1.63;;;;;;;21.10;52.84;96916.19;10366869;28;20488;-21
2022/07/15 03:01:36;;;;;;;1.02;1.00;;;;;;;21.13;54.62;96921.22;10367591;28;20554;-22
2022/07/15 03:06:37;;;;;;;2.83;1.20;;;;;;;20.93;56.28;96925.63;10370345;28;20037;-21
2022/07/15 03:11:38;;;;;;;1.23;0.90;;;;;;;20.86;56.62;96925.66;10375484;28;20354;-21
2022/07/15 03:16:38;;;;;;;1.55;0.85;;;;;;;20.83;56.83;96926.50;10375594;28;20049;-22
2022/07/15 03:21:39;;;;;;;1.85;0.90;;;;;;;20.78;56.76;96923.13;10383742;28;20026;-21
2022/07/15 03:26:39;;;;;;;1.63;1.00;;;;;;;20.79;56.82;96924.81;10375523;28;20026;-21
2022/07/15 03:31:40;;;;;;;1.30;1.00;;;;;;;20.78;56.72;96932.44;10384695;28;20520;-21
2022/07/15 03:36:41;;;;;;;1.10;0.95;;;;;;;20.72;57.26;96923.16;10370385;28;20415;-20
2022/07/15 03:41:44;;;;;;;2.42;1.63;;;;;;;20.89;53.54;96925.66;10371805;28;20392;-21
2022/07/15 03:46:45;;;;;;;2.92;1.25;;;;;;;20.28;57.34;96938.66;10359165;28;20034;-20
2022/07/15 03:51:47;;;;;;;3.17;1.60;;;;;;;19.95;55.21;96944.66;10349339;28;20044;-21
2022/07/15 03:56:49;;;;;;;3.05;2.10;;;;;;;19.76;54.19;96935.34;10333045;28;20080;-20
2022/07/15 04:01:52;;;;;;;7.25;1.90;;;;;;;19.66;54.04;96930.31;10330603;28;20029;-20
2022/07/15 04:06:52;;;;;;;3.50;2.03;;;;;;;19.68;54.18;96938.75;10333649;28;20033;-20
2022/07/15 04:11:53;;;;;;;3.43;1.93;;;;;;;19.64;53.99;96937.06;10334337;28;20104;-20
2022/07/15 04:16:53;;;;;;;5.43;2.50;;;;;;;19.73;53.02;96939.59;10335502;28;20030;-20
2022/07/15 04:22:20;;;;;;;3.13;1.95;;;;;;;19.74;54.06;96939.59;10312439;28;20038;-20
2022/07/15 04:27:24;;;;;;;3.30;2.17;;;;;;;19.78;53.87;96935.34;10319962;28;20026;-19
2022/07/15 04:32:26;;;;;;;3.63;2.30;;;;;;;19.65;53.79;96926.03;10362164;28;20033;-19
2022/07/15 04:37:27;;;;;;;4.63;2.40;;;;;;;19.68;53.89;96936.22;10366292;28;20176;-20
2022/07/15 04:42:30;;;;;;;6.07;2.40;;;;;;;19.59;53.87;96939.59;10393932;28;20025;-20
2022/07/15 04:47:31;;;;;;;3.90;2.20;;;;;;;19.54;53.97;96940.47;10359693;28;20030;-20
2022/07/15 04:52:34;;;;;;;4.30;2.35;;;;;;;19.49;54.11;96942.19;10371747;28;20036;-20
2022/07/15 04:57:35;;;;;;;6.13;2.63;;;;;;;19.46;54.00;96948.09;10368227;28;20029;-19
2022/07/15 05:02:37;;;;;;;7.63;2.65;;;;;;;19.97;53.87;96947.16;10359268;28;20378;-20
2022/07/15 05:07:37;;;;;;;4.75;2.33;;;;;;;20.18;52.81;96932.72;10371372;28;20037;-20
2022/07/15 05:12:39;;;;;;;3.45;2.50;;;;;;;20.36;53.36;96952.19;10372493;28;20045;-21
2022/07/15 05:17:40;;;;;;;3.83;2.10;;;;;;;20.42;53.43;96957.25;10383618;28;20039;-21
2022/07/15 05:22:45;;;;;;;7.93;2.75;;;;;;;20.65;52.00;96957.13;10369432;28;20037;-20
2022/07/15 05:27:47;;;;;;;4.25;2.25;;;;;;;20.77;52.35;96951.97;10369755;28;20049;-20
2022/07/15 05:32:49;;;;;;;3.13;2.20;;;;;;;20.64;53.58;96960.53;10365172;28;20044;-20
2022/07/15 05:37:55;;;;;;;7.00;2.37;;;;;;;20.60;54.24;96963.94;10370632;28;20026;-21
2022/07/15 05:43:01;;;;;;;5.47;2.30;;;;;;;20.62;54.33;96969.88;10367387;28;20370;-20
2022/07/15 05:48:04;;;;;;;5.72;2.38;;;;;;;20.62;54.09;96966.50;10363480;28;20096;-19
2022/07/15 05:53:09;;;;;;;2.95;1.95;;;;;;;20.61;54.58;96960.53;10371628;28;20032;-21
2022/07/15 05:58:09;;;;;;;3.47;2.30;;;;;;;20.56;54.53;96957.16;10367387;28;20033;-21
2022/07/15 06:03:12;;;;;;;2.67;2.28;;;;;;;20.61;54.53;96970.72;10380845;28;20028;-20
2022/07/15 06:08:16;;;;;;;7.85;2.40;;;;;;;20.64;54.33;96975.78;10366050;28;20033;-21
2022/07/15 06:13:20;;;;;;;3.75;2.65;;;;;;;20.85;53.62;96964.66;10367869;28;20358;-21
2022/07/15 06:18:21;;;;;;;2.33;1.90;;;;;;;20.90;53.77;96962.97;10366681;28;20021;-20
2022/07/15 06:23:23;;;;;;;2.08;1.88;;;;;;;20.74;54.48;96962.19;10366737;28;20050;-20
2022/07/15 06:28:24;;;;;;;3.08;2.20;;;;;;;20.69;54.75;96968.13;10371112;28;20144;-20
2022/07/15 06:33:25;;;;;;;2.90;1.88;;;;;;;20.65;54.82;96967.28;10364202;28;20030;-20
2022/07/15 06:38:25;;;;;;;2.45;1.70;;;;;;;20.64;55.27;96965.59;10369187;28;20040;-22
2022/07/15 06:43:26;;;;;;;2.65;1.95;;;;;;;20.65;55.40;96962.22;10373379;28;20236;-20
2022/07/15 06:48:41;;;;;;;3.92;2.78;;;;;;;20.66;55.30;96966.47;10384999;28;20519;-22
2022/07/15 06:53:43;;;;;;;2.72;2.28;;;;;;;20.68;55.56;96961.34;10370704;28;20038;-20
2022/07/15 06:58:44;;;;;;;4.45;2.20;;;;;;;20.73;55.38;96965.56;10377159;28;20034;-21
2022/07/15 07:03:45;;;;;;;4.00;2.20;;;;;;;20.95;54.78;96967.19;10369878;28;20069;-21
2022/07/15 07:08:47;;;;;;;3.67;2.07;;;;;;;20.99;54.58;96953.56;10374855;28;20120;-21
2022/07/15 07:13:49;;;;;;;3.00;1.90;;;;;;;20.82;55.17;96957.03;10378160;28;20359;-21
2022/07/15 07:18:50;;;;;;;2.42;1.92;;;;;;;20.74;55.41;96948.59;10373249;28;20033;-21
2022/07/15 07:23:50;;;;;;;3.33;1.80;;;;;;;20.72;55.15;96961.31;10374985;28;20048;-21
2022/07/15 07:28:51;;;;;;;3.10;1.87;;;;;;;20.72;55.77;96957.97;10375206;28;20508;-21
2022/07/15 07:33:56;;;;;;;3.30;2.10;;;;;;;20.71;55.61;96953.72;10372274;28;20026;-21
2022/07/15 07:38:57;;;;;;;1.83;1.52;;;;;;;20.71;55.83;96956.28;10375314;28;20061;-21
2022/07/15 07:43:57;;;;;;;3.27;1.70;;;;;;;20.69;56.02;96963.91;10375310;28;20112;-21
2022/07/15 07:48:58;;;;;;;4.65;2.35;;;;;;;20.72;55.99;96958.78;10374134;28;20042;-21
2022/07/15 07:53:58;;;;;;;3.22;1.90;;;;;;;20.96;55.39;96958.69;10375960;28;20038;-21
2022/07/15 07:58:59;;;;;;;2.10;1.90;;;;;;;21.02;54.97;96960.34;10376408;28;20032;-21
2022/07/15 08:03:59;;;;;;;2.30;1.97;;;;;;;20.84;55.69;96955.34;10376242;28;20033;-22
2022/07/15 08:09:00;;;;;;;3.13;1.40;;;;;;;20.76;55.72;96952.84;10375093;28;20029;-21
2022/07/15 08:14:00;;;;;;;1.70;1.60;;;;;;;20.75;55.99;96958.78;10375068;28;20041;-20
2022/07/15 08:19:00;;;;;;;3.87;1.70;;;;;;;20.75;56.03;96961.34;10372747;28;20029;-21
2022/07/15 08:24:01;;;;;;;3.33;1.90;;;;;;;20.74;55.90;96974.06;10373005;28;20668;-20
2022/07/15 08:29:01;;;;;;;5.70;2.00;;;;;;;20.72;56.16;96974.06;10372148;28;20033;-21
2022/07/15 08:34:04;;;;;;;24.02;2.50;;;;;;;20.72;56.45;96974.06;10370141;28;20091;-21
2022/07/15 08:39:05;;;;;;;4.80;2.28;;;;;;;20.77;56.50;96966.38;10373121;28;20030;-21
2022/07/15 08:44:06;;;;;;;6.28;2.05;;;;;;;21.01;55.54;96976.47;10369072;28;20485;-20
2022/07/15 08:49:11;;;;;;;3.95;1.85;;;;;;;21.08;55.33;96973.91;10371833;28;20040;-20
2022/07/15 08:54:13;;;;;;;3.05;1.52;;;;;;;20.90;55.77;96979.06;10372562;28;20034;-20
2022/07/15 08:59:13;;;;;;;3.67;2.40;;;;;;;20.80;56.23;96977.41;10370320;28;20064;-21
2022/07/15 09:04:15;;;;;;;3.90;2.03;;;;;;;20.79;56.03;96975.72;10375014;28;20037;-20
2022/07/15 09:09:25;;;;;;;3.75;2.33;;;;;;;20.79;56.39;96987.63;10370598;28;20714;-20
2022/07/15 09:14:30;;;;;;;3.90;2.50;;;;;;;20.76;56.29;97001.19;10373856;28;20405;-20
2022/07/15 09:20:01;;;;;;;3.83;2.00;;;;;;;20.76;56.14;96998.66;10371044;28;20473;-20
2022/07/15 09:25:07;;;;;;;3.88;1.95;;;;;;;20.77;56.36;96992.69;10372318;28;20171;-21
2022/07/15 09:40:52;;;;;;;4.00;2.15;;;;;;;21.04;56.11;96984.94;10372482;28;20036;-21
2022/07/15 09:45:59;;;;;;;4.70;2.33;;;;;;;20.81;56.74;96968.91;10371298;28;20040;-20
2022/07/15 09:51:00;;;;;;;4.18;2.22;;;;;;;20.83;56.75;96982.50;10370567;28;20041;-22
2022/07/15 09:56:02;;;;;;;3.95;2.30;;;;;;;20.77;56.74;96972.34;10373383;28;20045;-21
2022/07/15 10:01:03;;;;;;;3.83;2.08;;;;;;;20.79;56.97;96980.81;10369197;28;20096;-20
2022/07/15 10:06:05;;;;;;;3.28;1.77;;;;;;;20.79;56.95;96980.81;10364181;28;20522;-21
2022/07/15 10:11:09;;;;;;;3.08;2.00;;;;;;;20.78;57.24;96966.41;10358170;28;20064;-22
2022/07/15 10:16:54;;;;;;;4.32;2.20;;;;;;;20.78;57.02;96957.91;10366389;28;20129;-21
2022/07/15 10:22:05;;;;;;;2.22;2.03;;;;;;;20.92;56.86;96957.03;10364439;28;20038;-21
2022/07/15 10:27:42;;;;;;;3.15;1.52;;;;;;;21.12;56.18;96952.66;10364505;28;20041;-21
2022/07/15 10:33:19;;;;;;;1.90;1.60;;;;;;;20.97;56.24;96955.28;10364794;28;20081;-21
2022/07/15 10:38:38;;;;;;;3.60;1.80;;;;;;;20.87;56.57;96958.75;10359648;28;20041;-20
2022/07/15 10:43:51;;;;;;;12.80;2.30;;;;;;;20.87;56.99;96958.75;10358000;28;20034;-21
2022/07/15 10:48:57;;;;;;;21.67;2.92;;;;;;;20.83;56.86;96946.00;10368292;28;20048;-21
2022/07/15 10:53:59;;;;;;;7.18;2.20;;;;;;;20.77;56.99;96951.97;10368461;28;20041;-21
2022/07/15 10:59:11;;;;;;;6.25;1.95;;;;;;;20.78;56.94;96948.59;10367386;28;20034;-21
2022/07/15 11:04:14;;;;;;;3.42;1.67;;;;;;;20.78;57.14;96938.41;10366206;28;20037;-21
2022/07/15 11:09:47;;;;;;;2.75;1.60;;;;;;;20.76;57.08;96931.63;10367878;28;20042;-21
2022/07/15 11:15:05;;;;;;;2.85;2.00;;;;;;;21.07;56.10;96931.44;10367136;28;20524;-21
2022/07/15 11:20:09;;;;;;;2.10;1.70;;;;;;;21.15;55.55;96919.50;10367787;28;20026;-21
2022/07/15 11:25:28;;;;;;;3.05;1.95;;;;;;;20.87;56.50;96923.09;10369270;28;20037;-21
2022/07/15 11:30:38;;;;;;;2.38;2.15;;;;;;;20.86;56.74;96930.75;10371256;28;20045;-20
2022/07/15 11:35:53;;;;;;;2.47;1.90;;;;;;;20.83;56.94;96928.19;10371170;28;20327;-21
2022/07/15 11:46:15;;;;;;;3.72;2.20;;;;;;;20.82;56.95;96932.44;10372183;28;20624;-21
2022/07/15 11:51:16;;;;;;;2.92;1.98;;;;;;;20.80;56.98;96923.97;10371739;28;20041;-21
2022/07/15 11:56:16;;;;;;;8.82;2.75;;;;;;;20.78;56.97;96917.19;10374013;28;20029;-21
2022/07/15 12:01:21;;;;;;;12.55;2.63;;;;;;;20.91;56.69;96918.84;10372227;28;20032;-21
2022/07/15 12:06:27;;;;;;;7.38;2.58;;;;;;;21.15;56.17;96931.41;10370602;28;20480;-21
2022/07/15 12:11:31;;;;;;;4.55;1.85;;;;;;;21.19;56.01;96925.44;10369736;28;20479;-22
2022/07/15 12:16:34;;;;;;;5.13;1.90;;;;;;;21.00;56.33;96918.78;10377876;28;20092;-22
2022/07/15 12:21:36;;;;;;;5.78;2.15;;;;;;;20.85;56.55;96913.75;10372010;28;20037;-21
2022/07/15 12:26:39;;;;;;;4.47;2.05;;;;;;;20.87;56.86;96907.84;10373065;28;20484;-21
2022/07/15 12:31:43;;;;;;;6.38;2.47;;;;;;;20.84;56.84;96915.47;10369859;28;20388;-21
2022/07/15 12:36:43;;;;;;;10.60;2.28;;;;;;;20.83;57.05;96906.16;10370585;28;20089;-21
2022/07/15 12:41:46;;;;;;;3.27;2.13;;;;;;;20.80;56.98;96901.06;10374785;28;20167;-21
2022/07/15 12:46:56;;;;;;;5.82;2.13;;;;;;;20.81;57.18;96909.56;10370786;28;20037;-21
2022/07/15 12:51:56;;;;;;;9.85;2.88;;;;;;;20.88;56.57;96912.06;10372672;28;20042;-21
2022/07/15 12:56:57;;;;;;;2.07;1.67;;;;;;;21.15;55.63;96919.50;10371815;28;20534;-21
2022/07/15 13:02:02;;;;;;;3.35;1.48;;;;;;;21.20;55.66;96922.03;10370777;28;20041;-21
2022/07/15 13:07:02;;;;;;;5.53;1.90;;;;;;;21.03;56.34;96916.22;10375620;28;20044;-21
2022/07/15 13:12:03;;;;;;;4.10;1.80;;;;;;;20.95;56.61;96916.28;10374040;28;20358;-22
2022/07/15 13:17:04;;;;;;;6.93;2.60;;;;;;;20.91;56.85;96914.63;10370133;28;20449;-21
2022/07/15 13:22:04;;;;;;;14.10;3.25;;;;;;;20.89;56.84;96915.47;10368506;28;20396;-20
2022/07/15 13:27:05;;;;;;;9.48;2.45;;;;;;;20.86;56.97;96918.88;10372705;28;20046;-21
2022/07/15 13:32:05;;;;;;;10.60;3.10;;;;;;;20.85;57.23;96906.97;10367382;28;20026;-21
2022/07/15 13:37:06;;;;;;;7.30;2.13;;;;;;;20.84;57.10;96909.53;10369354;28;20303;-21
2022/07/15 13:42:06;;;;;;;16.90;3.30;;;;;;;20.86;57.14;96906.16;10371601;28;20092;-22
2022/07/15 13:47:07;;;;;;;3.35;2.08;;;;;;;21.15;56.21;96904.22;10366304;28;20030;-21
2022/07/15 13:52:07;;;;;;;4.18;2.60;;;;;;;21.26;55.96;96901.63;10370661;28;20132;-21
2022/07/15 13:57:07;;;;;;;4.23;1.40;;;;;;;21.10;56.37;96894.94;10370645;28;20092;-21
2022/07/15 14:02:08;;;;;;;6.67;1.70;;;;;;;20.97;56.62;96889.09;10369929;28;20854;-21
2022/07/15 14:07:08;;;;;;;4.85;2.97;;;;;;;20.92;56.82;96890.84;10367862;28;20080;-22
2022/07/15 14:12:09;;;;;;;4.82;1.42;;;;;;;20.89;57.16;96890.84;10369855;28;20038;-21
2022/07/15 14:17:09;;;;;;;3.77;1.73;;;;;;;20.86;57.23;96895.97;10366244;28;20022;-21
2022/07/15 14:22:10;;;;;;;4.97;2.20;;;;;;;20.87;57.36;96892.56;10366955;28;20057;-21
2022/07/15 14:27:10;;;;;;;4.55;2.10;;;;;;;20.87;57.17;96895.13;10372565;28;20060;-21
2022/07/15 14:32:10;;;;;;;7.33;2.00;;;;;;;20.86;57.19;96900.22;10363901;28;20037;-21
2022/07/15 14:37:11;;;;;;;5.80;2.10;;;;;;;21.10;56.88;96898.34;10366816;28;20029;-21
2022/07/15 14:42:11;;;;;;;3.70;1.83;;;;;;;21.27;56.31;96895.66;10369254;28;20041;-21
2022/07/15 14:47:12;;;;;;;2.55;1.50;;;;;;;21.18;56.43;96901.69;10370526;28;20096;-21
2022/07/15 14:52:13;;;;;;;4.20;1.50;;;;;;;21.03;56.58;96904.34;10367205;28;20527;-21
2022/07/15 14:57:13;;;;;;;3.03;1.83;;;;;;;20.95;56.94;96906.09;10371188;28;20481;-20
2022/07/15 15:02:14;;;;;;;6.40;2.25;;;;;;;20.97;57.44;96911.19;10369626;28;20033;-21
2022/07/15 15:07:14;;;;;;;5.25;2.20;;;;;;;20.92;57.38;96906.13;10379440;28;20632;-21
2022/07/15 15:12:14;;;;;;;3.33;1.50;;;;;;;20.91;57.20;96903.56;10373903;28;20072;-20
2022/07/15 15:17:15;;;;;;;5.03;1.98;;;;;;;21.03;57.32;96899.25;10364291;28;20044;-21
2022/07/15 15:22:15;;;;;;;2.87;1.80;;;;;;;21.27;56.73;96906.69;10368561;28;20452;-21
2022/07/15 15:27:16;;;;;;;4.23;1.77;;;;;;;21.24;56.31;96899.06;10367353;28;20433;-21
2022/07/15 15:32:16;;;;;;;7.13;1.80;;;;;;;21.10;56.69;96900.03;10363421;28;20030;-22
2022/07/15 15:37:17;;;;;;;3.83;1.73;;;;;;;20.99;57.05;96896.72;10365552;28;20096;-22
2022/07/15 15:42:17;;;;;;;2.45;1.63;;;;;;;20.93;57.36;96895.09;10366901;28;20072;-21
2022/07/15 15:47:18;;;;;;;2.60;2.03;;;;;;;20.91;57.43;96881.53;10366983;28;20591;-21
2022/07/15 15:52:18;;;;;;;4.63;1.42;;;;;;;20.89;57.37;96883.22;10360291;28;20038;-20
2022/07/15 15:57:18;;;;;;;2.13;1.60;;;;;;;20.89;57.34;96888.31;10370379;28;20037;-20
2022/07/15 16:02:19;;;;;;;9.40;2.63;;;;;;;20.96;58.39;96887.41;10373016;28;20747;-20
2022/07/15 16:07:19;;;;;;;4.00;2.47;;;;;;;21.24;57.47;96880.41;10375928;28;20401;-20
2022/07/15 16:12:20;;;;;;;1.43;1.33;;;;;;;21.26;56.89;96882.09;10377366;28;20029;-20
2022/07/15 16:17:20;;;;;;;3.70;1.60;;;;;;;21.12;57.03;96878.81;10371675;28;20030;-20
2022/07/15 16:27:39;;;;;;;3.72;1.42;;;;;;;20.95;57.31;96873.00;10377420;28;20280;-19
2022/07/15 16:32:40;;;;;;;4.17;1.37;;;;;;;20.85;58.12;96889.16;10366826;28;20041;-19
2022/07/15 16:37:41;;;;;;;11.43;2.20;;;;;;;20.97;57.55;96878.91;10366698;28;20350;-21
2022/07/15 16:42:42;;;;;;;6.32;1.67;;;;;;;21.10;57.70;96894.94;10370415;28;20860;-19
2022/07/15 16:47:42;;;;;;;5.25;2.15;;;;;;;21.32;56.62;96886.28;10368924;28;20097;-19
2022/07/15 16:52:43;;;;;;;2.73;1.60;;;;;;;21.28;56.59;96890.56;10371935;28;20561;-19
2022/07/15 16:57:44;;;;;;;4.15;1.58;;;;;;;21.11;56.96;96892.41;10371276;28;20354;-19
2022/07/15 17:02:44;;;;;;;3.67;1.40;;;;;;;21.04;57.16;96900.09;10372643;28;20037;-21
2022/07/15 17:07:44;;;;;;;5.80;1.70;;;;;;;20.99;57.33;96902.66;10374028;28;20301;-20
2022/07/15 17:12:45;;;;;;;3.53;1.70;;;;;;;20.95;57.54;96900.13;10372114;28;20037;-20
2022/07/15 17:17:46;;;;;;;3.47;1.42;;;;;;;20.94;57.61;96901.84;10369416;28;20044;-20
2022/07/15 17:22:46;;;;;;;2.67;1.60;;;;;;;20.92;57.52;96895.94;10368409;28;20105;-20
2022/07/15 17:27:47;;;;;;;3.28;2.47;;;;;;;21.02;58.00;96902.66;10372586;28;20041;-20
2022/07/15 17:32:47;;;;;;;4.50;1.80;;;;;;;21.26;56.96;96897.38;10366681;28;20045;-20
2022/07/15 17:37:48;;;;;;;3.37;1.30;;;;;;;21.34;56.60;96905.81;10367356;28;20351;-20
2022/07/15 17:42:48;;;;;;;2.35;1.50;;;;;;;21.15;57.07;96903.41;10370894;28;20151;-20
2022/07/15 17:47:48;;;;;;;5.97;1.70;;;;;;;21.04;57.32;96908.56;10369091;28;20064;-20
2022/07/15 17:52:49;;;;;;;3.30;1.97;;;;;;;21.00;57.34;96899.28;10366736;28;20176;-20
2022/07/15 17:57:49;;;;;;;16.90;2.37;;;;;;;21.00;57.52;96906.06;10368951;28;20033;-20
2022/07/15 18:02:50;;;;;;;10.57;2.50;;;;;;;21.10;58.48;96900.91;10362805;28;20045;-19
2022/07/15 18:07:50;;;;;;;5.63;1.80;;;;;;;21.13;58.38;96908.50;10373444;28;20292;-23
2022/07/15 18:12:51;;;;;;;2.30;1.50;;;;;;;21.36;57.11;96904.09;10368109;28;20042;-20
2022/07/15 18:17:52;;;;;;;3.38;1.60;;;;;;;21.35;56.85;96902.41;10368069;28;20037;-21
2022/07/15 18:22:52;;;;;;;5.40;1.63;;;;;;;21.14;56.95;96902.53;10367807;28;20409;-21
2022/07/15 18:27:53;;;;;;;5.68;1.70;;;;;;;21.05;57.41;96907.72;10369072;28;20525;-21
2022/07/15 18:32:53;;;;;;;11.30;1.80;;;;;;;21.04;57.43;96910.28;10365211;28;20512;-21
2022/07/15 18:37:53;;;;;;;1.95;1.30;;;;;;;21.01;57.56;96910.28;10367949;28;20026;-21
2022/07/15 18:42:54;;;;;;;4.27;1.47;;;;;;;20.98;57.44;96907.78;10365302;28;20157;-21
2022/07/15 18:47:54;;;;;;;6.33;1.70;;;;;;;20.97;57.60;96909.47;10368079;28;20440;-21
2022/07/15 18:52:55;;;;;;;3.00;2.00;;;;;;;21.27;57.61;96914.34;10367185;28;20917;-19
2022/07/15 18:57:55;;;;;;;1.73;1.30;;;;;;;21.36;56.54;96908.31;10368960;28;20334;-19
2022/07/15 19:02:55;;;;;;;4.73;1.70;;;;;;;21.18;57.12;96911.00;10365446;28;20018;-20
2022/07/15 19:07:56;;;;;;;2.70;1.38;;;;;;;21.08;57.21;96928.06;10367247;28;20129;-22
2022/07/15 19:12:56;;;;;;;4.43;1.50;;;;;;;21.03;57.22;96932.34;10371699;28;20492;-22
2022/07/15 19:17:57;;;;;;;9.77;1.40;;;;;;;21.01;57.43;96936.59;10366928;28;20034;-22
2022/07/15 19:22:58;;;;;;;4.35;1.30;;;;;;;20.98;57.76;96945.97;10355310;28;20652;-22
2022/07/15 19:27:58;;;;;;;1.40;1.20;;;;;;;20.96;57.69;96953.59;10368130;28;20539;-22
2022/07/15 19:32:58;;;;;;;2.88;1.38;;;;;;;21.04;58.16;96954.41;10362263;28;20045;-22
2022/07/15 19:37:59;;;;;;;1.60;1.50;;;;;;;21.30;57.18;96955.06;10362083;28;20030;-22
2022/07/15 19:42:59;;;;;;;4.00;1.30;;;;;;;21.39;56.63;96964.34;10361117;28;20049;-22
2022/07/15 19:48:00;;;;;;;1.45;1.20;;;;;;;21.20;56.99;96967.84;10366590;28;20034;-22
2022/07/15 19:53:00;;;;;;;1.07;0.97;;;;;;;21.10;57.07;96976.41;10369666;28;20108;-22
2022/07/15 19:58:01;;;;;;;2.13;1.30;;;;;;;21.05;57.15;96983.25;10371922;28;20779;-22
2022/07/15 20:03:04;;;;;;;1.48;1.20;;;;;;;21.01;57.29;96991.75;10368166;28;20296;-22
2022/07/15 20:08:05;;;;;;;1.23;1.13;;;;;;;20.97;57.23;96996.00;10371063;28;20044;-22
2022/07/15 20:13:05;;;;;;;1.30;1.20;;;;;;;20.96;57.36;97004.50;10368677;28;20038;-22
2022/07/15 20:18:06;;;;;;;2.50;0.93;;;;;;;20.96;57.30;97009.59;10365420;28;20061;-24
2022/07/15 20:23:07;;;;;;;2.42;1.60;;;;;;;21.24;55.30;97006.03;10376011;28;20038;-22
2022/07/15 20:28:07;;;;;;;3.47;1.35;;;;;;;21.40;54.59;97027.16;10365342;28;20034;-22
2022/07/15 20:33:08;;;;;;;1.70;1.17;;;;;;;21.26;55.62;97021.31;10367450;28;20041;-22
2022/07/15 20:38:09;;;;;;;2.25;1.17;;;;;;;21.12;56.76;97015.44;10372693;28;20537;-21
2022/07/15 20:43:09;;;;;;;2.17;1.60;;;;;;;21.05;56.63;97024.81;10368762;28;20038;-21
2022/07/15 20:48:12;;;;;;;4.30;1.60;;;;;;;21.02;56.81;97032.47;10372880;28;20129;-22
2022/07/15 20:53:12;;;;;;;2.25;1.77;;;;;;;20.94;56.81;97024.03;10361380;28;20968;-22
2022/07/15 20:58:12;;;;;;;1.87;1.27;;;;;;;21.01;56.71;97033.34;10381125;28;20121;-21
2022/07/15 21:03:14;;;;;;;1.37;1.20;;;;;;;20.65;57.34;97030.06;10368154;28;20056;-22
2022/07/15 21:08:14;;;;;;;3.60;2.13;;;;;;;20.47;55.10;97036.06;10369737;28;20463;-22
2022/07/15 21:13:15;;;;;;;4.13;1.95;;;;;;;20.28;54.00;97038.63;10376425;28;20030;-21
2022/07/15 21:18:15;;;;;;;3.33;2.20;;;;;;;20.13;53.71;97027.66;10370374;28;20034;-21
2022/07/15 21:23:16;;;;;;;6.10;2.27;;;;;;;20.01;53.32;97035.28;10370155;28;20712;-21
2022/07/15 21:28:16;;;;;;;3.47;2.05;;;;;;;20.06;53.36;97034.47;10365846;28;20291;-20
2022/07/15 21:33:17;;;;;;;4.65;2.00;;;;;;;20.00;53.02;97041.22;10369137;28;20120;-22
2022/07/15 21:38:17;;;;;;;6.73;2.73;;;;;;;19.97;53.13;97046.28;10370033;28;20029;-21
2022/07/15 21:43:19;;;;;;;3.25;2.03;;;;;;;19.98;52.83;97047.97;10371744;28;20108;-21
2022/07/15 21:48:19;;;;;;;3.17;1.80;;;;;;;19.85;52.45;97034.44;10369353;28;20048;-21
2022/07/15 21:53:20;;;;;;;5.63;2.15;;;;;;;19.87;52.70;97042.06;10372946;28;20064;-22
2022/07/15 21:58:20;;;;;;;5.17;1.97;;;;;;;19.84;52.53;97044.63;10369443;28;20038;-20
2022/07/15 22:03:20;;;;;;;3.43;2.30;;;;;;;19.87;52.15;97047.13;10369829;28;20080;-21
2022/07/15 22:08:21;;;;;;;5.03;2.10;;;;;;;19.82;52.35;97038.66;10371458;28;20527;-22
2022/07/15 22:13:22;;;;;;;3.10;1.95;;;;;;;19.75;52.60;97037.81;10370077;28;20030;-20
2022/07/15 22:18:22;;;;;;;3.47;2.08;;;;;;;19.68;52.38;97037.84;10369332;28;20029;-20
2022/07/15 22:23:23;;;;;;;6.10;2.57;;;;;;;19.67;52.38;97038.69;10371551;28;20157;-20
2022/07/15 22:28:23;;;;;;;4.38;2.17;;;;;;;19.59;51.94;97035.28;10370174;28;20201;-20
2022/07/15 22:33:23;;;;;;;4.40;2.22;;;;;;;19.57;52.69;97047.13;10365768;28;20037;-20
2022/07/15 22:38:24;;;;;;;3.30;2.27;;;;;;;19.53;52.49;97051.38;10367659;28;20423;-20
2022/07/15 22:43:24;;;;;;;2.23;2.03;;;;;;;19.50;52.61;97042.91;10364929;28;20440;-21
2022/07/15 22:48:24;;;;;;;2.40;2.20;;;;;;;19.47;53.01;97040.34;10367110;28;20511;-21
2022/07/15 22:53:25;;;;;;;5.93;2.10;;;;;;;19.32;53.32;97040.31;10371134;28;20297;-20
2022/07/15 22:58:26;;;;;;;2.88;2.25;;;;;;;19.36;53.07;97044.56;10367054;28;20026;-21
2022/07/15 23:03:27;;;;;;;2.97;2.15;;;;;;;19.32;53.18;97040.31;10368533;28;20022;-20
2022/07/15 23:08:27;;;;;;;5.03;2.20;;;;;;;19.26;52.96;97042.88;10371028;28;20038;-21
2022/07/15 23:13:27;;;;;;;2.67;1.93;;;;;;;19.27;53.06;97053.00;10368361;28;20034;-20
2022/07/15 23:18:28;;;;;;;3.63;2.45;;;;;;;19.22;53.21;97053.84;10367519;28;20030;-20
2022/07/15 23:23:28;;;;;;;4.40;2.00;;;;;;;19.18;53.21;97047.03;10371112;28;20512;-20
2022/07/15 23:28:29;;;;;;;7.97;4.03;;;;;;;19.11;53.65;97061.41;10375673;28;20121;-21
2022/07/15 23:33:29;;;;;;;3.05;1.95;;;;;;;19.03;53.96;97057.16;10372944;28;20061;-20
2022/07/15 23:38:30;;;;;;;5.35;2.55;;;;;;;18.95;54.35;97058.81;10375409;28;20030;-21
2022/07/15 23:43:30;;;;;;;3.13;2.00;;;;;;;18.98;53.93;97044.44;10373893;28;20496;-20